sensor_id;sensor_type;location;lat;lon;timestamp;pressure;altitude;pressure_sealevel;temperature;humidity
22572;BME280;11452;53.368;14.658;2023-02-20T00:00:58;101375.15;;;4.01;67.80
22572;BME280;11452;53.368;14.658;2023-02-20T00:06:04;101368.45;;;4.06;67.79
22572;BME280;11452;53.368;14.658;2023-02-20T00:11:09;101373.80;;;4.03;68.12
22572;BME280;11452;53.368;14.658;2023-02-20T00:16:15;101359.65;;;4.05;68.25
22572;BME280;11452;53.368;14.658;2023-02-20T00:21:21;101357.48;;;4.03;68.62
22572;BME280;11452;53.368;14.658;2023-02-20T00:26:26;101347.30;;;4.06;68.59
22572;BME280;11452;53.368;14.658;2023-02-20T00:31:32;101343.78;;;4.05;68.58
22572;BME280;11452;53.368;14.658;2023-02-20T00:36:38;101334.69;;;3.96;69.16
22572;BME280;11452;53.368;14.658;2023-02-20T00:41:44;101331.66;;;3.94;69.38
22572;BME280;11452;53.368;14.658;2023-02-20T00:46:50;101330.28;;;3.97;69.48
22572;BME280;11452;53.368;14.658;2023-02-20T00:51:56;101321.07;;;3.94;69.91
22572;BME280;11452;53.368;14.658;2023-02-20T00:57:01;101308.45;;;3.87;70.25
22572;BME280;11452;53.368;14.658;2023-02-20T01:02:07;101301.05;;;3.82;70.49
22572;BME280;11452;53.368;14.658;2023-02-20T01:07:12;101298.03;;;3.78;70.85
22572;BME280;11452;53.368;14.658;2023-02-20T01:12:18;101292.75;;;3.78;71.03
22572;BME280;11452;53.368;14.658;2023-02-20T01:17:24;101297.84;;;3.89;71.02
22572;BME280;11452;53.368;14.658;2023-02-20T01:22:31;101282.54;;;3.82;71.61
22572;BME280;11452;53.368;14.658;2023-02-20T01:27:37;101264.48;;;3.81;71.68
22572;BME280;11452;53.368;14.658;2023-02-20T01:32:42;101243.87;;;3.76;71.96
22572;BME280;11452;53.368;14.658;2023-02-20T01:37:50;101242.05;;;3.80;71.95
22572;BME280;11452;53.368;14.658;2023-02-20T01:42:55;101234.45;;;3.86;72.40
22572;BME280;11452;53.368;14.658;2023-02-20T01:48:01;101228.34;;;3.82;72.66
22572;BME280;11452;53.368;14.658;2023-02-20T01:53:10;101233.09;;;3.87;72.88
22572;BME280;11452;53.368;14.658;2023-02-20T01:58:32;101226.30;;;3.95;73.07
22572;BME280;11452;53.368;14.658;2023-02-20T02:03:34;101202.57;;;3.92;73.46
22572;BME280;11452;53.368;14.658;2023-02-20T02:08:41;101203.44;;;3.92;73.77
22572;BME280;11452;53.368;14.658;2023-02-20T02:13:47;101194.55;;;3.96;73.95
22572;BME280;11452;53.368;14.658;2023-02-20T02:40:42;101139.24;;;4.06;75.18
22572;BME280;11452;53.368;14.658;2023-02-20T02:45:53;101132.28;;;4.02;75.87
22572;BME280;11452;53.368;14.658;2023-02-20T02:51:14;101128.11;;;4.10;76.15
22572;BME280;11452;53.368;14.658;2023-02-20T02:56:14;101118.37;;;4.12;76.33
22572;BME280;11452;53.368;14.658;2023-02-20T03:01:27;101112.14;;;4.14;76.41
22572;BME280;11452;53.368;14.658;2023-02-20T03:06:36;101094.43;;;4.18;76.64
22572;BME280;11452;53.368;14.658;2023-02-20T03:11:44;101093.91;;;4.22;76.82
22572;BME280;11452;53.368;14.658;2023-02-20T03:17:04;101087.05;;;4.31;76.61
22572;BME280;11452;53.368;14.658;2023-02-20T03:22:22;101090.91;;;4.35;76.83
22572;BME280;11452;53.368;14.658;2023-02-20T03:27:31;101083.33;;;4.39;76.74
22572;BME280;11452;53.368;14.658;2023-02-20T03:32:37;101057.31;;;4.39;77.15
22572;BME280;11452;53.368;14.658;2023-02-20T03:38:04;101040.31;;;4.47;77.24
22572;BME280;11452;53.368;14.658;2023-02-20T03:43:31;101033.36;;;4.45;77.38
22572;BME280;11452;53.368;14.658;2023-02-20T03:49:02;101028.89;;;4.45;77.67
22572;BME280;11452;53.368;14.658;2023-02-20T03:54:03;101026.22;;;4.47;77.89
22572;BME280;11452;53.368;14.658;2023-02-20T03:59:14;101017.29;;;4.51;78.17
22572;BME280;11452;53.368;14.658;2023-02-20T04:04:25;101021.38;;;4.46;78.40
22572;BME280;11452;53.368;14.658;2023-02-20T04:09:32;101002.55;;;4.42;78.87
22572;BME280;11452;53.368;14.658;2023-02-20T04:14:39;101010.79;;;4.46;79.35
22572;BME280;11452;53.368;14.658;2023-02-20T04:19:45;101011.77;;;4.44;79.46
22572;BME280;11452;53.368;14.658;2023-02-20T04:25:13;101002.51;;;4.44;80.09
22572;BME280;11452;53.368;14.658;2023-02-20T04:30:09;101010.75;;;4.48;80.60
22572;BME280;11452;53.368;14.658;2023-02-20T04:35:18;100986.44;;;4.50;80.76
22572;BME280;11452;53.368;14.658;2023-02-20T04:40:25;100966.47;;;4.55;80.95
22572;BME280;11452;53.368;14.658;2023-02-20T04:45:31;100955.55;;;4.50;81.43
22572;BME280;11452;53.368;14.658;2023-02-20T04:50:37;100945.27;;;4.56;81.58
22572;BME280;11452;53.368;14.658;2023-02-20T04:55:44;100939.84;;;4.61;82.25
22572;BME280;11452;53.368;14.658;2023-02-20T05:00:51;100925.78;;;4.59;82.53
22572;BME280;11452;53.368;14.658;2023-02-20T05:05:57;100917.59;;;4.51;83.22
22572;BME280;11452;53.368;14.658;2023-02-20T05:11:03;100901.27;;;4.52;83.96
22572;BME280;11452;53.368;14.658;2023-02-20T05:16:08;100890.18;;;4.54;84.38
22572;BME280;11452;53.368;14.658;2023-02-20T05:21:15;100875.13;;;4.56;84.56
22572;BME280;11452;53.368;14.658;2023-02-20T05:26:39;100866.44;;;4.66;84.72
22572;BME280;11452;53.368;14.658;2023-02-20T05:31:44;100860.28;;;4.65;85.40
22572;BME280;11452;53.368;14.658;2023-02-20T05:36:51;100846.55;;;4.67;85.57
22572;BME280;11452;53.368;14.658;2023-02-20T05:41:56;100831.45;;;4.71;85.86
22572;BME280;11452;53.368;14.658;2023-02-20T05:47:02;100821.91;;;4.80;86.05
22572;BME280;11452;53.368;14.658;2023-02-20T05:52:10;100810.61;;;5.01;87.71
22572;BME280;11452;53.368;14.658;2023-02-20T05:57:16;100790.02;;;4.83;87.06
22572;BME280;11452;53.368;14.658;2023-02-20T06:02:22;100774.04;;;4.86;87.21
22572;BME280;11452;53.368;14.658;2023-02-20T06:07:27;100766.31;;;4.93;87.43
22572;BME280;11452;53.368;14.658;2023-02-20T06:12:33;100763.11;;;4.97;87.93
22572;BME280;11452;53.368;14.658;2023-02-20T06:17:38;100749.83;;;4.98;88.25
22572;BME280;11452;53.368;14.658;2023-02-20T06:22:50;100745.17;;;5.05;88.55
22572;BME280;11452;53.368;14.658;2023-02-20T06:27:55;100731.68;;;5.12;88.52
22572;BME280;11452;53.368;14.658;2023-02-20T06:33:01;100720.98;;;5.15;88.73
22572;BME280;11452;53.368;14.658;2023-02-20T06:38:07;100718.05;;;5.23;89.01
22572;BME280;11452;53.368;14.658;2023-02-20T06:43:12;100710.36;;;5.29;89.27
22572;BME280;11452;53.368;14.658;2023-02-20T06:48:18;100716.74;;;5.48;89.06
22572;BME280;11452;53.368;14.658;2023-02-20T06:53:23;100721.69;;;5.45;89.43
22572;BME280;11452;53.368;14.658;2023-02-20T06:58:30;100721.69;;;5.45;89.43
22572;BME280;11452;53.368;14.658;2023-02-20T07:03:35;100704.55;;;5.55;90.17
22572;BME280;11452;53.368;14.658;2023-02-20T07:08:41;100701.60;;;5.63;90.43
22572;BME280;11452;53.368;14.658;2023-02-20T07:13:47;100701.60;;;5.63;90.43
22572;BME280;11452;53.368;14.658;2023-02-20T07:18:52;100690.38;;;5.80;90.62
22572;BME280;11452;53.368;14.658;2023-02-20T07:23:57;100683.84;;;5.90;90.81
22572;BME280;11452;53.368;14.658;2023-02-20T07:29:04;100659.41;;;5.94;90.73
22572;BME280;11452;53.368;14.658;2023-02-20T07:34:10;100624.66;;;6.00;90.89
22572;BME280;11452;53.368;14.658;2023-02-20T07:39:16;100643.14;;;6.13;90.78
22572;BME280;11452;53.368;14.658;2023-02-20T07:44:23;100620.22;;;6.12;90.79
22572;BME280;11452;53.368;14.658;2023-02-20T07:49:28;100596.19;;;6.15;90.80
22572;BME280;11452;53.368;14.658;2023-02-20T07:54:34;100585.92;;;6.17;90.97
22572;BME280;11452;53.368;14.658;2023-02-20T07:59:40;100538.91;;;6.21;90.78
22572;BME280;11452;53.368;14.658;2023-02-20T08:04:45;100549.00;;;6.23;90.78
22572;BME280;11452;53.368;14.658;2023-02-20T08:09:51;100529.95;;;6.34;90.95
22572;BME280;11452;53.368;14.658;2023-02-20T08:14:56;100524.27;;;6.43;90.81
22572;BME280;11452;53.368;14.658;2023-02-20T08:20:02;100510.33;;;6.58;90.97
22572;BME280;11452;53.368;14.658;2023-02-20T08:25:08;100476.02;;;6.64;90.77
22572;BME280;11452;53.368;14.658;2023-02-20T08:30:22;100466.84;;;6.71;90.23
22572;BME280;11452;53.368;14.658;2023-02-20T08:35:22;100468.63;;;6.80;89.90
22572;BME280;11452;53.368;14.658;2023-02-20T08:40:28;100440.63;;;7.02;88.98
22572;BME280;11452;53.368;14.658;2023-02-20T08:45:34;100444.36;;;6.88;88.74
22572;BME280;11452;53.368;14.658;2023-02-20T08:50:39;100445.95;;;6.92;89.11
22572;BME280;11452;53.368;14.658;2023-02-20T08:55:46;100416.52;;;6.97;88.82
22572;BME280;11452;53.368;14.658;2023-02-20T09:00:52;100406.30;;;7.06;88.68
22572;BME280;11452;53.368;14.658;2023-02-20T09:05:59;100411.34;;;7.12;88.13
22572;BME280;11452;53.368;14.658;2023-02-20T09:11:04;100416.92;;;7.25;87.85
22572;BME280;11452;53.368;14.658;2023-02-20T09:16:15;100413.45;;;7.60;86.65
22572;BME280;11452;53.368;14.658;2023-02-20T09:21:21;100411.50;;;7.73;86.07
22572;BME280;11452;53.368;14.658;2023-02-20T09:26:27;100395.98;;;7.55;85.96
22572;BME280;11452;53.368;14.658;2023-02-20T09:31:32;100379.63;;;7.62;85.45
22572;BME280;11452;53.368;14.658;2023-02-20T09:36:38;100351.11;;;7.75;85.02
22572;BME280;11452;53.368;14.658;2023-02-20T09:46:58;100346.33;;;7.90;84.19
22572;BME280;11452;53.368;14.658;2023-02-20T09:52:09;100332.95;;;7.91;83.28
22572;BME280;11452;53.368;14.658;2023-02-20T09:57:16;100338.63;;;8.01;83.15
22572;BME280;11452;53.368;14.658;2023-02-20T10:02:28;100301.53;;;8.15;82.88
22572;BME280;11452;53.368;14.658;2023-02-20T10:07:48;100326.71;;;8.17;81.94
22572;BME280;11452;53.368;14.658;2023-02-20T10:23:09;100309.94;;;8.41;80.42
22572;BME280;11452;53.368;14.658;2023-02-20T10:28:14;100320.81;;;8.45;80.41
22572;BME280;11452;53.368;14.658;2023-02-20T10:33:36;100338.44;;;8.47;80.41
22572;BME280;11452;53.368;14.658;2023-02-20T10:38:58;100327.70;;;8.49;80.34
22572;BME280;11452;53.368;14.658;2023-02-20T10:44:01;100322.30;;;8.50;80.16
22572;BME280;11452;53.368;14.658;2023-02-20T10:49:10;100318.97;;;8.54;80.08
22572;BME280;11452;53.368;14.658;2023-02-20T10:59:49;100326.61;;;8.68;80.22
22572;BME280;11452;53.368;14.658;2023-02-20T11:04:59;100300.45;;;8.84;79.79
22572;BME280;11452;53.368;14.658;2023-02-20T11:10:04;100325.90;;;8.89;79.82
22572;BME280;11452;53.368;14.658;2023-02-20T11:15:19;100323.78;;;9.03;79.97
22572;BME280;11452;53.368;14.658;2023-02-20T11:25:42;100325.73;;;9.15;79.66
22572;BME280;11452;53.368;14.658;2023-02-20T11:30:56;100323.98;;;9.23;79.51
22572;BME280;11452;53.368;14.658;2023-02-20T11:36:13;100307.89;;;9.24;79.23
22572;BME280;11452;53.368;14.658;2023-02-20T11:41:32;100302.95;;;9.25;79.29
22572;BME280;11452;53.368;14.658;2023-02-20T11:46:39;100245.71;;;9.24;79.56
22572;BME280;11452;53.368;14.658;2023-02-20T11:51:46;100284.76;;;9.25;79.73
22572;BME280;11452;53.368;14.658;2023-02-20T12:02:25;100296.02;;;9.14;80.38
22572;BME280;11452;53.368;14.658;2023-02-20T12:07:37;100287.00;;;9.17;80.71
22572;BME280;11452;53.368;14.658;2023-02-20T12:12:42;100294.84;;;9.04;81.43
22572;BME280;11452;53.368;14.658;2023-02-20T12:23:31;100266.30;;;9.06;82.44
22572;BME280;11452;53.368;14.658;2023-02-20T12:28:51;100256.38;;;9.01;83.06
22572;BME280;11452;53.368;14.658;2023-02-20T12:33:56;100260.37;;;9.01;83.57
22572;BME280;11452;53.368;14.658;2023-02-20T12:44:54;100257.95;;;8.96;84.87
22572;BME280;11452;53.368;14.658;2023-02-20T13:01:04;100267.76;;;8.96;86.89
22572;BME280;11452;53.368;14.658;2023-02-20T13:06:10;100224.38;;;9.01;87.47
22572;BME280;11452;53.368;14.658;2023-02-20T13:11:21;100256.50;;;9.07;87.41
22572;BME280;11452;53.368;14.658;2023-02-20T13:16:30;100259.47;;;9.16;87.05
22572;BME280;11452;53.368;14.658;2023-02-20T13:21:35;100240.81;;;9.16;87.14
22572;BME280;11452;53.368;14.658;2023-02-20T13:26:43;100239.69;;;9.20;86.75
22572;BME280;11452;53.368;14.658;2023-02-20T13:31:51;100241.80;;;9.22;86.65
22572;BME280;11452;53.368;14.658;2023-02-20T13:36:57;100248.29;;;9.25;86.28
22572;BME280;11452;53.368;14.658;2023-02-20T13:47:33;100236.38;;;9.24;86.37
22572;BME280;11452;53.368;14.658;2023-02-20T13:52:44;100226.58;;;9.24;86.01
22572;BME280;11452;53.368;14.658;2023-02-20T13:58:09;100192.20;;;9.27;86.18
22572;BME280;11452;53.368;14.658;2023-02-20T14:03:24;100208.00;;;9.30;86.25
22572;BME280;11452;53.368;14.658;2023-02-20T14:08:30;100190.88;;;9.34;86.11
22572;BME280;11452;53.368;14.658;2023-02-20T14:13:38;100195.34;;;9.33;86.07
22572;BME280;11452;53.368;14.658;2023-02-20T14:18:44;100203.82;;;9.33;85.97
22572;BME280;11452;53.368;14.658;2023-02-20T14:23:51;100202.78;;;9.35;86.17
22572;BME280;11452;53.368;14.658;2023-02-20T14:28:58;100190.95;;;9.32;86.09
22572;BME280;11452;53.368;14.658;2023-02-20T14:34:06;100180.70;;;9.41;85.71
22572;BME280;11452;53.368;14.658;2023-02-20T14:44:28;100226.61;;;9.38;86.00
22572;BME280;11452;53.368;14.658;2023-02-20T14:49:34;100171.75;;;9.42;86.13
22572;BME280;11452;53.368;14.658;2023-02-20T14:54:42;100164.61;;;9.42;86.27
22572;BME280;11452;53.368;14.658;2023-02-20T14:59:48;100167.09;;;9.45;86.41
22572;BME280;11452;53.368;14.658;2023-02-20T15:05:05;100164.41;;;9.38;86.63
22572;BME280;11452;53.368;14.658;2023-02-20T15:10:34;100142.23;;;9.45;86.71
22572;BME280;11452;53.368;14.658;2023-02-20T15:15:46;100177.66;;;9.40;87.15
22572;BME280;11452;53.368;14.658;2023-02-20T15:20:52;100185.45;;;9.35;87.74
22572;BME280;11452;53.368;14.658;2023-02-20T15:25:58;100174.58;;;9.31;87.73
22572;BME280;11452;53.368;14.658;2023-02-20T15:36:24;100189.27;;;9.38;87.75
22572;BME280;11452;53.368;14.658;2023-02-20T15:41:24;100177.36;;;9.37;87.93
22572;BME280;11452;53.368;14.658;2023-02-20T15:46:30;100171.07;;;9.38;87.75
22572;BME280;11452;53.368;14.658;2023-02-20T15:51:40;100184.23;;;9.41;88.07
22572;BME280;11452;53.368;14.658;2023-02-20T15:56:46;100182.42;;;9.42;87.89
22572;BME280;11452;53.368;14.658;2023-02-20T16:01:52;100177.45;;;9.35;88.27
22572;BME280;11452;53.368;14.658;2023-02-20T16:06:57;100180.95;;;9.29;88.79
22572;BME280;11452;53.368;14.658;2023-02-20T16:12:03;100180.47;;;9.29;89.10
22572;BME280;11452;53.368;14.658;2023-02-20T16:17:19;100181.42;;;9.28;89.64
22572;BME280;11452;53.368;14.658;2023-02-20T16:22:38;100172.30;;;9.25;89.86
22572;BME280;11452;53.368;14.658;2023-02-20T16:27:45;100192.94;;;9.29;90.14
22572;BME280;11452;53.368;14.658;2023-02-20T16:32:53;100182.67;;;9.23;90.28
22572;BME280;11452;53.368;14.658;2023-02-20T16:37:58;100196.38;;;9.31;90.36
22572;BME280;11452;53.368;14.658;2023-02-20T16:43:05;100201.42;;;9.28;90.70
22572;BME280;11452;53.368;14.658;2023-02-20T16:48:16;100218.58;;;9.24;91.09
22572;BME280;11452;53.368;14.658;2023-02-20T16:53:21;100202.58;;;9.31;91.21
22572;BME280;11452;53.368;14.658;2023-02-20T16:58:28;100200.56;;;9.28;91.55
22572;BME280;11452;53.368;14.658;2023-02-20T17:03:33;100215.22;;;9.28;92.51
22572;BME280;11452;53.368;14.658;2023-02-20T17:08:39;100196.94;;;9.29;92.88
22572;BME280;11452;53.368;14.658;2023-02-20T17:13:45;100216.94;;;9.22;93.81
22572;BME280;11452;53.368;14.658;2023-02-20T17:18:50;100222.19;;;9.23;94.42
22572;BME280;11452;53.368;14.658;2023-02-20T17:23:56;100221.98;;;9.19;95.07
22572;BME280;11452;53.368;14.658;2023-02-20T17:29:02;100245.02;;;9.20;95.53
22572;BME280;11452;53.368;14.658;2023-02-20T17:34:08;100252.16;;;9.20;96.17
22572;BME280;11452;53.368;14.658;2023-02-20T17:39:17;100241.88;;;9.21;96.46
22572;BME280;11452;53.368;14.658;2023-02-20T17:44:26;100238.83;;;9.20;96.85
22572;BME280;11452;53.368;14.658;2023-02-20T17:49:31;100247.22;;;9.21;96.99
22572;BME280;11452;53.368;14.658;2023-02-20T17:54:37;100240.73;;;9.18;97.57
22572;BME280;11452;53.368;14.658;2023-02-20T17:59:45;100237.71;;;9.24;97.95
22572;BME280;11452;53.368;14.658;2023-02-20T18:04:52;100232.47;;;9.22;98.00
22572;BME280;11452;53.368;14.658;2023-02-20T18:09:58;100246.01;;;9.26;98.24
22572;BME280;11452;53.368;14.658;2023-02-20T18:15:06;100242.09;;;9.32;97.90
22572;BME280;11452;53.368;14.658;2023-02-20T18:20:12;100235.14;;;9.29;98.28
22572;BME280;11452;53.368;14.658;2023-02-20T18:25:19;100235.34;;;9.33;98.75
22572;BME280;11452;53.368;14.658;2023-02-20T18:30:27;100241.54;;;9.34;98.61
22572;BME280;11452;53.368;14.658;2023-02-20T18:35:32;100234.48;;;9.33;98.78
22572;BME280;11452;53.368;14.658;2023-02-20T18:40:39;100249.63;;;9.32;99.05
22572;BME280;11452;53.368;14.658;2023-02-20T18:45:46;100252.15;;;9.43;98.96
22572;BME280;11452;53.368;14.658;2023-02-20T18:50:53;100270.40;;;9.34;99.27
22572;BME280;11452;53.368;14.658;2023-02-20T18:55:58;100249.48;;;9.43;99.23
22572;BME280;11452;53.368;14.658;2023-02-20T19:01:04;100239.38;;;9.41;99.31
22572;BME280;11452;53.368;14.658;2023-02-20T19:06:10;100239.11;;;9.45;99.37
22572;BME280;11452;53.368;14.658;2023-02-20T19:11:15;100237.01;;;9.43;99.29
22572;BME280;11452;53.368;14.658;2023-02-20T19:16:21;100248.06;;;9.44;99.53
22572;BME280;11452;53.368;14.658;2023-02-20T19:21:27;100252.71;;;9.48;99.79
22572;BME280;11452;53.368;14.658;2023-02-20T19:26:32;100239.67;;;9.43;99.72
22572;BME280;11452;53.368;14.658;2023-02-20T19:31:38;100251.38;;;9.41;100.00
22572;BME280;11452;53.368;14.658;2023-02-20T19:36:44;100245.09;;;9.42;100.00
22572;BME280;11452;53.368;14.658;2023-02-20T19:41:50;100240.06;;;9.44;100.00
22572;BME280;11452;53.368;14.658;2023-02-20T19:46:56;100245.48;;;9.50;100.00
22572;BME280;11452;53.368;14.658;2023-02-20T19:52:02;100237.48;;;9.50;100.00
22572;BME280;11452;53.368;14.658;2023-02-20T19:57:07;100252.45;;;9.52;100.00
22572;BME280;11452;53.368;14.658;2023-02-20T20:02:13;100245.86;;;9.51;100.00
22572;BME280;11452;53.368;14.658;2023-02-20T20:07:19;100253.01;;;9.50;100.00
22572;BME280;11452;53.368;14.658;2023-02-20T20:12:24;100262.25;;;9.52;100.00
22572;BME280;11452;53.368;14.658;2023-02-20T20:17:50;100260.74;;;9.55;100.00
22572;BME280;11452;53.368;14.658;2023-02-20T20:22:58;100271.30;;;9.49;100.00
22572;BME280;11452;53.368;14.658;2023-02-20T20:28:05;100244.33;;;9.47;100.00
22572;BME280;11452;53.368;14.658;2023-02-20T20:33:12;100266.91;;;9.48;100.00
22572;BME280;11452;53.368;14.658;2023-02-20T20:38:20;100275.20;;;9.51;100.00
22572;BME280;11452;53.368;14.658;2023-02-20T20:43:26;100265.78;;;9.52;100.00
22572;BME280;11452;53.368;14.658;2023-02-20T20:48:31;100252.66;;;9.56;100.00
22572;BME280;11452;53.368;14.658;2023-02-20T20:53:38;100247.50;;;9.53;100.00
22572;BME280;11452;53.368;14.658;2023-02-20T20:58:43;100266.26;;;9.52;100.00
22572;BME280;11452;53.368;14.658;2023-02-20T21:03:49;100250.64;;;9.53;100.00
22572;BME280;11452;53.368;14.658;2023-02-20T21:08:55;100242.25;;;9.52;100.00
22572;BME280;11452;53.368;14.658;2023-02-20T21:14:00;100235.84;;;9.47;100.00
22572;BME280;11452;53.368;14.658;2023-02-20T21:19:06;100225.56;;;9.48;100.00
22572;BME280;11452;53.368;14.658;2023-02-20T21:24:12;100218.80;;;9.50;100.00
22572;BME280;11452;53.368;14.658;2023-02-20T21:29:18;100218.54;;;9.54;100.00
22572;BME280;11452;53.368;14.658;2023-02-20T21:34:23;100230.45;;;9.56;100.00
22572;BME280;11452;53.368;14.658;2023-02-20T21:39:30;100214.42;;;9.49;99.89
22572;BME280;11452;53.368;14.658;2023-02-20T21:44:37;100203.86;;;9.54;99.78
22572;BME280;11452;53.368;14.658;2023-02-20T21:49:44;100210.83;;;9.57;99.62
22572;BME280;11452;53.368;14.658;2023-02-20T21:54:51;100217.50;;;9.57;99.38
22572;BME280;11452;53.368;14.658;2023-02-20T21:59:58;100232.85;;;9.60;99.28
22572;BME280;11452;53.368;14.658;2023-02-20T22:05:03;100222.92;;;9.55;98.95
22572;BME280;11452;53.368;14.658;2023-02-20T22:10:09;100230.84;;;9.57;98.71
22572;BME280;11452;53.368;14.658;2023-02-20T22:15:33;100231.88;;;9.54;98.77
22572;BME280;11452;53.368;14.658;2023-02-20T22:20:56;100221.30;;;9.53;98.36
22572;BME280;11452;53.368;14.658;2023-02-20T22:26:20;100224.64;;;9.56;98.56
22572;BME280;11452;53.368;14.658;2023-02-20T22:31:44;100220.55;;;9.58;98.45
22572;BME280;11452;53.368;14.658;2023-02-20T22:37:08;100249.60;;;9.55;98.14
22572;BME280;11452;53.368;14.658;2023-02-20T22:42:32;100239.88;;;9.54;97.99
22572;BME280;11452;53.368;14.658;2023-02-20T22:47:55;100242.45;;;9.56;97.67
22572;BME280;11452;53.368;14.658;2023-02-20T22:53:18;100247.02;;;9.54;97.68
22572;BME280;11452;53.368;14.658;2023-02-20T22:58:42;100253.57;;;9.48;97.75
22572;BME280;11452;53.368;14.658;2023-02-20T23:04:05;100252.23;;;9.48;97.81
22572;BME280;11452;53.368;14.658;2023-02-20T23:09:29;100262.44;;;9.42;97.58
22572;BME280;11452;53.368;14.658;2023-02-20T23:14:52;100267.98;;;9.46;98.30
22572;BME280;11452;53.368;14.658;2023-02-20T23:20:18;100242.81;;;9.43;98.17
22572;BME280;11452;53.368;14.658;2023-02-20T23:25:41;100250.13;;;9.39;98.74
22572;BME280;11452;53.368;14.658;2023-02-20T23:31:05;100245.48;;;9.43;98.92
22572;BME280;11452;53.368;14.658;2023-02-20T23:36:28;100281.54;;;9.34;98.87
22572;BME280;11452;53.368;14.658;2023-02-20T23:41:52;100298.00;;;9.26;99.25
22572;BME280;11452;53.368;14.658;2023-02-20T23:47:15;100273.33;;;9.30;99.57
22572;BME280;11452;53.368;14.658;2023-02-20T23:52:39;100275.59;;;9.22;99.22
22572;BME280;11452;53.368;14.658;2023-02-20T23:58:02;100280.11;;;9.13;98.96
